createdAt,value
2023-02-23T00:00:00.501Z,9.3
2023-02-23T00:01:00.125Z,9.3
2023-02-23T00:02:00.839Z,9.3
2023-02-23T00:03:00.686Z,9.3
2023-02-23T00:03:59.895Z,9.2
2023-02-23T00:05:00.638Z,9.2
2023-02-23T00:06:00.149Z,9.2
2023-02-23T00:06:59.697Z,9.3
2023-02-23T00:08:00.284Z,9.2
2023-02-23T00:08:59.876Z,9.2
2023-02-23T00:10:00.455Z,9.3
2023-02-23T00:11:00.077Z,9.2
2023-02-23T00:12:00.983Z,9.2
2023-02-23T00:13:00.579Z,9.1
2023-02-23T00:13:59.849Z,9.2
2023-02-23T00:15:00.454Z,9.2
2023-02-23T00:16:00.095Z,9.2
2023-02-23T00:17:00.616Z,9.2
2023-02-23T00:18:00.204Z,9.2
2023-02-23T00:18:59.844Z,9.1
2023-02-23T00:20:00.386Z,9.2
2023-02-23T00:20:59.973Z,9.2
2023-02-23T00:22:00.560Z,9.1
2023-02-23T00:23:00.180Z,9.1
2023-02-23T00:23:59.759Z,9.1
2023-02-23T00:25:01.309Z,9
2023-02-23T00:26:00.195Z,9.1
2023-02-23T00:27:00.564Z,9.1
2023-02-23T00:28:00.153Z,9.1
2023-02-23T00:28:59.730Z,9.1
2023-02-23T00:30:00.350Z,9.2
2023-02-23T00:31:00.096Z,9.1
2023-02-23T00:32:00.660Z,9.2
2023-02-23T00:33:00.174Z,9.2
2023-02-23T00:33:59.760Z,9.2
2023-02-23T00:35:00.333Z,9.2
2023-02-23T00:35:59.956Z,9.2
2023-02-23T00:37:00.529Z,9.1
2023-02-23T00:38:00.118Z,9.1
2023-02-23T00:38:59.693Z,9.1
2023-02-23T00:40:00.367Z,9.1
2023-02-23T00:40:59.915Z,9.1
2023-02-23T00:42:00.510Z,9.1
2023-02-23T00:43:00.100Z,9.2
2023-02-23T00:43:59.674Z,9.2
2023-02-23T00:45:00.259Z,9.2
2023-02-23T00:45:59.888Z,9.3
2023-02-23T00:47:00.490Z,9.3
2023-02-23T00:48:00.090Z,9.2
2023-02-23T00:49:00.653Z,9.2
2023-02-23T00:50:00.251Z,9.3
2023-02-23T00:50:59.838Z,9.2
2023-02-23T00:52:00.445Z,9.2
2023-02-23T00:53:00.054Z,9.1
2023-02-23T00:54:00.616Z,9.1
2023-02-23T00:55:00.213Z,9.1
2023-02-23T00:55:59.826Z,9.1
2023-02-23T00:57:00.393Z,9.1
2023-02-23T00:58:00.007Z,9.2
2023-02-23T00:59:00.578Z,9.2
2023-02-23T01:00:00.238Z,9.2
2023-02-23T01:00:59.757Z,9.2
2023-02-23T01:02:00.334Z,9.2
2023-02-23T01:02:59.980Z,9.2
2023-02-23T01:04:00.521Z,9.1
2023-02-23T01:05:00.105Z,9.1
2023-02-23T01:05:59.716Z,9.1
2023-02-23T01:07:00.277Z,9.1
2023-02-23T01:07:59.868Z,9.1
2023-02-23T01:09:00.469Z,9.1
2023-02-23T01:10:00.105Z,9.1
2023-02-23T01:11:00.629Z,9.1
2023-02-23T01:12:00.218Z,9.2
2023-02-23T01:12:59.809Z,9.2
2023-02-23T01:14:00.382Z,9.1
2023-02-23T01:14:59.999Z,9.2
2023-02-23T01:16:00.583Z,9.2
2023-02-23T01:17:00.190Z,9.2
2023-02-23T01:17:59.772Z,9.2
2023-02-23T01:19:00.435Z,9.2
2023-02-23T01:19:59.995Z,9.2
2023-02-23T01:21:00.600Z,9.2
2023-02-23T01:22:00.187Z,9.2
2023-02-23T01:22:59.764Z,9.2
2023-02-23T01:24:00.338Z,9.2
2023-02-23T01:24:59.940Z,9.2
2023-02-23T01:26:00.539Z,9.2
2023-02-23T01:27:00.135Z,9.1
2023-02-23T01:27:59.726Z,9.1
2023-02-23T01:29:00.290Z,9.2
2023-02-23T01:29:59.883Z,9.2
2023-02-23T01:31:00.585Z,9.1
2023-02-23T01:32:01.640Z,9.1
2023-02-23T01:33:00.653Z,9.1
2023-02-23T01:34:00.240Z,9.1
2023-02-23T01:34:59.866Z,9.1
2023-02-23T01:36:00.448Z,9.1
2023-02-23T01:37:00.081Z,9.1
2023-02-23T01:38:00.621Z,9.2
2023-02-23T01:39:00.253Z,9.1
2023-02-23T01:39:59.838Z,9.2
2023-02-23T01:41:00.500Z,9.2
2023-02-23T01:42:00.104Z,9.2
2023-02-23T01:43:00.647Z,9.2
2023-02-23T01:44:00.234Z,9.2
2023-02-23T01:44:59.839Z,9.2
2023-02-23T01:46:00.414Z,9.2
2023-02-23T01:47:00.105Z,9.2
2023-02-23T01:48:00.647Z,9.1
2023-02-23T01:49:00.239Z,9.1
2023-02-23T01:49:59.833Z,9.1
2023-02-23T01:51:00.432Z,9.1
2023-02-23T01:52:00.047Z,9.1
2023-02-23T01:53:00.596Z,9.1
2023-02-23T01:54:00.208Z,9.1
2023-02-23T01:54:59.797Z,9.1
2023-02-23T01:56:00.367Z,9.2
2023-02-23T01:56:59.955Z,9.1
2023-02-23T01:58:00.529Z,9.1
2023-02-23T01:59:00.146Z,9.1
2023-02-23T01:59:59.693Z,9
2023-02-23T02:01:00.283Z,9
2023-02-23T02:01:59.881Z,8.9
2023-02-23T02:03:00.464Z,8.9
2023-02-23T02:04:00.124Z,8.9
2023-02-23T02:05:00.689Z,8.9
2023-02-23T02:06:00.309Z,8.8
2023-02-23T02:06:59.885Z,8.9
2023-02-23T02:08:00.442Z,8.9
2023-02-23T02:09:00.057Z,8.8
2023-02-23T02:10:00.607Z,8.9
2023-02-23T02:11:00.213Z,8.9
2023-02-23T02:11:59.809Z,8.9
2023-02-23T02:13:00.388Z,9
2023-02-23T02:13:59.982Z,8.9
2023-02-23T02:15:00.572Z,9
2023-02-23T02:16:00.286Z,9
2023-02-23T02:16:59.739Z,9
2023-02-23T02:18:00.327Z,9.1
2023-02-23T02:18:59.917Z,9
2023-02-23T02:20:00.500Z,9
2023-02-23T02:21:00.118Z,9
2023-02-23T02:21:59.965Z,9.1
2023-02-23T02:23:00.275Z,9.1
2023-02-23T02:23:59.877Z,9
2023-02-23T02:25:00.495Z,9
2023-02-23T02:26:00.312Z,8.9
2023-02-23T02:26:59.688Z,8.9
2023-02-23T02:28:00.296Z,9
2023-02-23T02:28:59.884Z,9
2023-02-23T02:30:00.477Z,9
2023-02-23T02:31:00.119Z,9
2023-02-23T02:32:00.809Z,9.1
2023-02-23T02:33:00.450Z,9.1
2023-02-23T02:33:59.904Z,9.1
2023-02-23T02:35:00.456Z,9.1
2023-02-23T02:36:00.050Z,9.1
2023-02-23T02:37:00.631Z,9
2023-02-23T02:38:00.218Z,9
2023-02-23T02:38:59.850Z,9
2023-02-23T02:40:00.394Z,9
2023-02-23T02:41:00.087Z,8.9
2023-02-23T02:42:00.584Z,8.8
2023-02-23T02:43:00.190Z,8.8
2023-02-23T02:43:59.786Z,8.9
2023-02-23T02:45:00.344Z,8.9
2023-02-23T02:46:00.051Z,8.9
2023-02-23T02:47:00.512Z,9
2023-02-23T02:48:00.119Z,9
2023-02-23T02:48:59.712Z,9
2023-02-23T02:50:00.275Z,9
2023-02-23T02:50:59.864Z,9
2023-02-23T02:52:00.437Z,9
2023-02-23T02:53:00.028Z,9
2023-02-23T02:54:00.646Z,9
2023-02-23T02:55:00.275Z,9
2023-02-23T02:55:59.856Z,8.9
2023-02-23T02:57:00.449Z,8.9
2023-02-23T02:58:00.075Z,9
2023-02-23T02:59:00.634Z,8.9
2023-02-23T03:00:00.224Z,9
2023-02-23T03:00:59.845Z,9
2023-02-23T03:02:00.396Z,9
2023-02-23T03:02:59.996Z,8.9
2023-02-23T03:04:00.575Z,9
2023-02-23T03:05:00.248Z,9
2023-02-23T03:05:59.775Z,9
2023-02-23T03:07:00.342Z,9
2023-02-23T03:07:59.935Z,9
2023-02-23T03:09:00.520Z,8.9
2023-02-23T03:10:00.159Z,9
2023-02-23T03:10:59.728Z,9
2023-02-23T03:12:00.255Z,9
2023-02-23T03:12:59.845Z,9
2023-02-23T03:14:00.421Z,9.1
2023-02-23T03:15:00.040Z,9.1
2023-02-23T03:16:00.640Z,9.1
2023-02-23T03:17:00.264Z,9.1
2023-02-23T03:17:59.828Z,9.1
2023-02-23T03:19:00.411Z,9.1
2023-02-23T03:20:00.035Z,9.1
2023-02-23T03:21:00.589Z,9
2023-02-23T03:22:00.186Z,9.1
2023-02-23T03:22:59.761Z,9
2023-02-23T03:24:02.295Z,8.9
2023-02-23T03:24:59.895Z,9.1
2023-02-23T03:26:00.483Z,9
2023-02-23T03:27:00.103Z,9
2023-02-23T03:28:00.659Z,9
2023-02-23T03:29:00.268Z,9
2023-02-23T03:29:59.857Z,9
2023-02-23T03:31:00.487Z,9
2023-02-23T03:32:00.203Z,9
2023-02-23T03:32:59.670Z,9
2023-02-23T03:34:00.273Z,9
2023-02-23T03:34:59.860Z,8.9
2023-02-23T03:36:00.468Z,8.9
2023-02-23T03:37:00.057Z,8.9
2023-02-23T03:38:00.657Z,8.8
2023-02-23T03:39:00.247Z,8.9
2023-02-23T03:39:59.868Z,8.9
2023-02-23T03:41:00.415Z,8.9
2023-02-23T03:42:00.113Z,8.9
2023-02-23T03:43:00.604Z,8.9
2023-02-23T03:44:00.196Z,8.9
2023-02-23T03:44:59.800Z,8.8
2023-02-23T03:46:00.395Z,8.8
2023-02-23T03:46:59.997Z,8.8
2023-02-23T03:48:00.572Z,8.8
2023-02-23T03:49:00.197Z,8.8
2023-02-23T03:49:59.748Z,8.9
2023-02-23T03:51:00.321Z,8.9
2023-02-23T03:51:59.932Z,8.9
2023-02-23T03:53:00.482Z,8.9
2023-02-23T03:54:00.113Z,8.8
2023-02-23T03:55:00.655Z,8.8
2023-02-23T03:56:00.241Z,8.9
2023-02-23T03:56:59.846Z,8.8
2023-02-23T03:58:00.410Z,8.8
2023-02-23T03:59:00.029Z,8.9
2023-02-23T04:00:00.585Z,8.8
2023-02-23T04:01:00.171Z,8.8
2023-02-23T04:01:59.800Z,8.8
2023-02-23T04:03:00.332Z,8.8
2023-02-23T04:03:59.917Z,8.9
2023-02-23T04:05:00.493Z,8.8
2023-02-23T04:06:00.164Z,8.8
2023-02-23T04:07:00.660Z,8.9
2023-02-23T04:08:00.250Z,8.8
2023-02-23T04:08:59.844Z,8.8
2023-02-23T04:10:00.413Z,8.8
2023-02-23T04:11:00.045Z,8.8
2023-02-23T04:12:00.604Z,8.7
2023-02-23T04:13:00.190Z,8.7
2023-02-23T04:13:59.798Z,8.7
2023-02-23T04:15:00.390Z,8.7
2023-02-23T04:15:59.998Z,8.8
2023-02-23T04:17:00.570Z,8.8
2023-02-23T04:18:00.201Z,8.8
2023-02-23T04:18:59.746Z,8.8
2023-02-23T04:20:00.337Z,8.7
2023-02-23T04:21:00.097Z,8.7
2023-02-23T04:22:00.511Z,8.8
2023-02-23T04:23:00.128Z,8.7
2023-02-23T04:23:59.700Z,8.7
2023-02-23T04:25:00.284Z,8.7
2023-02-23T04:25:59.875Z,8.7
2023-02-23T04:27:00.460Z,8.7
2023-02-23T04:28:00.100Z,8.6
2023-02-23T04:29:00.629Z,8.6
2023-02-23T04:30:00.223Z,8.6
2023-02-23T04:30:59.889Z,8.6
2023-02-23T04:32:00.452Z,8.6
2023-02-23T04:33:00.046Z,8.6
2023-02-23T04:34:00.630Z,8.6
2023-02-23T04:35:00.260Z,8.6
2023-02-23T04:35:59.853Z,8.6
2023-02-23T04:37:00.451Z,8.6
2023-02-23T04:38:00.047Z,8.6
2023-02-23T04:39:00.612Z,8.6
2023-02-23T04:40:00.199Z,8.6
2023-02-23T04:40:59.784Z,8.6
2023-02-23T04:42:00.388Z,8.5
2023-02-23T04:43:00.094Z,8.5
2023-02-23T04:44:00.567Z,8.5
2023-02-23T04:45:00.162Z,8.5
2023-02-23T04:45:59.823Z,8.5
2023-02-23T04:47:00.345Z,8.5
2023-02-23T04:47:59.957Z,8.5
2023-02-23T04:49:00.518Z,8.5
2023-02-23T04:50:00.152Z,8.5
2023-02-23T04:50:59.698Z,8.6
2023-02-23T04:52:00.275Z,8.5
2023-02-23T04:52:59.893Z,8.5
2023-02-23T04:54:00.461Z,8.5
2023-02-23T04:55:00.049Z,8.6
2023-02-23T04:56:00.656Z,8.6
2023-02-23T04:57:00.256Z,8.6
2023-02-23T04:58:00.041Z,8.6
2023-02-23T04:59:00.422Z,8.5
2023-02-23T05:00:00.191Z,8.5
2023-02-23T05:01:00.631Z,8.4
2023-02-23T05:02:00.252Z,8.5
2023-02-23T05:02:59.837Z,8.4
2023-02-23T05:04:00.469Z,8.5
2023-02-23T05:05:00.293Z,8.5
2023-02-23T05:06:00.663Z,8.5
2023-02-23T05:07:00.517Z,8.5
2023-02-23T05:08:00.379Z,8.5
2023-02-23T05:09:00.457Z,8.5
2023-02-23T05:10:00.055Z,8.5
2023-02-23T05:11:00.639Z,8.4
2023-02-23T05:12:00.314Z,8.5
2023-02-23T05:12:59.840Z,8.4
2023-02-23T05:14:00.419Z,8.4
2023-02-23T05:15:00.003Z,8.4
2023-02-23T05:16:00.618Z,8.3
2023-02-23T05:17:00.561Z,8.3
2023-02-23T05:17:59.839Z,8.4
2023-02-23T05:19:00.596Z,8.3
2023-02-23T05:20:00.105Z,8.3
2023-02-23T05:21:00.648Z,8.4
2023-02-23T05:22:00.263Z,8.3
2023-02-23T05:22:59.859Z,8.4
2023-02-23T05:24:00.442Z,8.4
2023-02-23T05:25:00.028Z,8.4
2023-02-23T05:26:00.716Z,8.4
2023-02-23T05:27:00.329Z,8.3
2023-02-23T05:27:59.840Z,8.4
2023-02-23T05:29:00.433Z,8.5
2023-02-23T05:30:00.041Z,8.5
2023-02-23T05:31:01.381Z,8.4
2023-02-23T05:32:00.112Z,8.4
2023-02-23T05:32:59.762Z,8.4
2023-02-23T05:34:00.353Z,8.4
2023-02-23T05:35:00.156Z,8.4
2023-02-23T05:36:00.545Z,8.3
2023-02-23T05:37:00.169Z,8.3
2023-02-23T05:37:59.766Z,8.4
2023-02-23T05:39:00.502Z,8.4
2023-02-23T05:39:59.994Z,8.4
2023-02-23T05:41:00.749Z,8.4
2023-02-23T05:42:00.214Z,8.4
2023-02-23T05:42:59.926Z,8.4
2023-02-23T05:44:00.380Z,8.4
2023-02-23T05:44:59.985Z,8.3
2023-02-23T05:46:00.587Z,8.3
2023-02-23T05:47:00.228Z,8.4
2023-02-23T05:47:59.779Z,8.4
2023-02-23T05:49:00.349Z,8.4
2023-02-23T05:49:59.937Z,8.3
2023-02-23T05:51:00.542Z,8.3
2023-02-23T05:52:00.158Z,8.4
2023-02-23T05:52:59.697Z,8.4
2023-02-23T05:54:00.280Z,8.4
2023-02-23T05:54:59.870Z,8.3
2023-02-23T05:56:00.446Z,8.3
2023-02-23T05:57:01.773Z,8.3
2023-02-23T05:58:00.454Z,8.3
2023-02-23T05:59:00.071Z,8.3
2023-02-23T06:00:00.680Z,8.3
2023-02-23T06:01:00.276Z,8.3
2023-02-23T06:01:59.860Z,8.2
2023-02-23T06:03:00.451Z,8.3
2023-02-23T06:04:00.089Z,8.2
2023-02-23T06:05:00.635Z,8.2
2023-02-23T06:06:00.250Z,8.2
2023-02-23T06:06:59.852Z,8.2
2023-02-23T06:08:00.407Z,8.3
2023-02-23T06:08:59.991Z,8.3
2023-02-23T06:10:00.587Z,8.3
2023-02-23T06:11:00.176Z,8.3
2023-02-23T06:11:59.758Z,8.3
2023-02-23T06:13:00.371Z,8.3
2023-02-23T06:13:59.960Z,8.3
2023-02-23T06:15:00.543Z,8.3
2023-02-23T06:16:00.198Z,8.3
2023-02-23T06:16:59.810Z,8.3
2023-02-23T06:18:00.326Z,8.3
2023-02-23T06:18:59.928Z,8.3
2023-02-23T06:20:00.496Z,8.3
2023-02-23T06:21:00.105Z,8.3
2023-02-23T06:22:00.654Z,8.3
2023-02-23T06:23:00.415Z,8.3
2023-02-23T06:23:59.889Z,8.4
2023-02-23T06:25:00.460Z,8.3
2023-02-23T06:26:00.102Z,8.3
2023-02-23T06:27:00.634Z,8.3
2023-02-23T06:28:00.225Z,8.4
2023-02-23T06:28:59.815Z,8.4
2023-02-23T06:30:00.390Z,8.4
2023-02-23T06:31:00.072Z,8.4
2023-02-23T06:32:01.145Z,8.4
2023-02-23T06:32:59.889Z,8.4
2023-02-23T06:34:00.473Z,8.4
2023-02-23T06:35:00.081Z,8.4
2023-02-23T06:36:00.649Z,8.3
2023-02-23T06:37:00.259Z,8.3
2023-02-23T06:37:59.896Z,8.3
2023-02-23T06:39:00.630Z,8.3
2023-02-23T06:40:00.130Z,8.4
2023-02-23T06:40:59.686Z,8.3
2023-02-23T06:42:00.277Z,8.3
2023-02-23T06:42:59.886Z,8.3
2023-02-23T06:44:00.549Z,8.3
2023-02-23T06:45:00.124Z,8.3
2023-02-23T06:46:00.664Z,8.4
2023-02-23T06:47:00.251Z,8.4
2023-02-23T06:47:59.850Z,8.3
2023-02-23T06:49:00.455Z,8.4
2023-02-23T06:50:00.104Z,8.4
2023-02-23T06:51:00.627Z,8.4
2023-02-23T06:52:00.218Z,8.4
2023-02-23T06:52:59.798Z,8.4
2023-02-23T06:54:00.403Z,8.4
2023-02-23T06:55:00.017Z,8.4
2023-02-23T06:56:00.576Z,8.4
2023-02-23T06:57:00.214Z,8.4
2023-02-23T06:57:59.743Z,8.4
2023-02-23T06:59:00.328Z,8.4
2023-02-23T06:59:59.942Z,8.4
2023-02-23T07:01:00.506Z,8.4
2023-02-23T07:02:00.211Z,8.4
2023-02-23T07:02:59.715Z,8.4
2023-02-23T07:04:00.349Z,8.4
2023-02-23T07:04:59.934Z,8.3
2023-02-23T07:06:00.557Z,8.4
2023-02-23T07:07:00.146Z,8.4
2023-02-23T07:07:59.738Z,8.4
2023-02-23T07:09:00.300Z,8.4
2023-02-23T07:09:59.898Z,8.3
2023-02-23T07:11:00.495Z,8.3
2023-02-23T07:12:00.099Z,8.4
2023-02-23T07:13:00.739Z,8.4
2023-02-23T07:14:00.346Z,8.3
2023-02-23T07:14:59.895Z,8.3
2023-02-23T07:16:00.501Z,8.4
2023-02-23T07:17:00.148Z,8.3
2023-02-23T07:17:59.674Z,8.3
2023-02-23T07:19:00.270Z,8.3
2023-02-23T07:19:59.858Z,8.3
2023-02-23T07:21:00.436Z,8.3
2023-02-23T07:22:00.032Z,8.3
2023-02-23T07:23:00.680Z,8.3
2023-02-23T07:24:00.293Z,8.3
2023-02-23T07:24:59.866Z,8.3
2023-02-23T07:26:00.430Z,8.3
2023-02-23T07:27:00.049Z,8.3
2023-02-23T07:28:00.592Z,8.4
2023-02-23T07:29:00.180Z,8.3
2023-02-23T07:29:59.768Z,8.3
2023-02-23T07:31:00.355Z,8.3
2023-02-23T07:32:00.097Z,8.4
2023-02-23T07:33:00.552Z,8.3
2023-02-23T07:34:00.146Z,8.3
2023-02-23T07:34:59.732Z,8.3
2023-02-23T07:36:00.390Z,8.3
2023-02-23T07:36:59.982Z,8.3
2023-02-23T07:38:00.524Z,8.4
2023-02-23T07:39:00.112Z,8.4
2023-02-23T07:40:01.235Z,8.4
2023-02-23T07:41:00.005Z,8.4
2023-02-23T07:42:00.665Z,8.3
2023-02-23T07:43:00.481Z,8.3
2023-02-23T07:43:59.899Z,8.3
2023-02-23T07:45:00.581Z,8.4
2023-02-23T07:46:00.207Z,8.3
2023-02-23T07:46:59.716Z,8.3
2023-02-23T07:48:00.315Z,8.2
2023-02-23T07:48:59.917Z,8.3
2023-02-23T07:50:00.509Z,8.3
2023-02-23T07:51:00.514Z,8.3
2023-02-23T07:51:59.699Z,8.4
2023-02-23T07:53:00.313Z,8.3
2023-02-23T07:53:59.901Z,8.3
2023-02-23T07:55:00.477Z,8.4
2023-02-23T07:56:00.101Z,8.3
2023-02-23T07:57:00.642Z,8.3
2023-02-23T07:58:00.260Z,8.3
2023-02-23T07:58:59.882Z,8.3
2023-02-23T08:00:00.584Z,8.4
2023-02-23T08:01:00.103Z,8.4
2023-02-23T08:02:00.652Z,8.4
2023-02-23T08:03:00.262Z,8.4
2023-02-23T08:03:59.898Z,8.4
2023-02-23T08:05:00.437Z,8.3
2023-02-23T08:06:00.030Z,8.3
2023-02-23T08:07:00.600Z,8.3
2023-02-23T08:08:00.197Z,8.3
2023-02-23T08:08:59.817Z,8.3
2023-02-23T08:10:00.381Z,8.4
2023-02-23T08:10:59.973Z,8.4
2023-02-23T08:12:00.558Z,8.4
2023-02-23T08:13:00.221Z,8.3
2023-02-23T08:13:59.749Z,8.4
2023-02-23T08:15:00.356Z,8.3
2023-02-23T08:15:59.943Z,8.3
2023-02-23T08:17:00.529Z,8.3
2023-02-23T08:18:00.163Z,8.3
2023-02-23T08:18:59.732Z,8.3
2023-02-23T08:20:00.310Z,8.3
2023-02-23T08:20:59.903Z,8.3
2023-02-23T08:22:00.498Z,8.3
2023-02-23T08:23:00.121Z,8.3
2023-02-23T08:24:00.668Z,8.4
2023-02-23T08:25:00.261Z,8.4
2023-02-23T08:25:59.862Z,8.4
2023-02-23T08:27:00.455Z,8.4
2023-02-23T08:28:00.048Z,8.4
2023-02-23T08:29:00.618Z,8.4
2023-02-23T08:30:00.208Z,8.3
2023-02-23T08:30:59.938Z,8.3
2023-02-23T08:32:00.505Z,8.3
2023-02-23T08:33:00.026Z,8.3
2023-02-23T08:34:00.629Z,8.3
2023-02-23T08:35:00.218Z,8.3
2023-02-23T08:35:59.807Z,8.3
2023-02-23T08:37:00.393Z,8.3
2023-02-23T08:38:00.045Z,8.3
2023-02-23T08:39:00.637Z,8.3
2023-02-23T08:40:00.247Z,8.3
2023-02-23T08:40:59.836Z,8.4
2023-02-23T08:42:00.441Z,8.4
2023-02-23T08:43:00.027Z,8.3
2023-02-23T08:44:00.639Z,8.3
2023-02-23T08:45:00.340Z,8.4
2023-02-23T08:45:59.865Z,8.4
2023-02-23T08:47:00.465Z,8.4
2023-02-23T08:48:00.131Z,8.4
2023-02-23T08:49:00.646Z,8.4
2023-02-23T08:50:00.246Z,8.4
2023-02-23T08:50:59.863Z,8.4
2023-02-23T08:52:00.427Z,8.4
2023-02-23T08:53:00.014Z,8.4
2023-02-23T08:54:00.612Z,8.3
2023-02-23T08:55:00.198Z,8.3
2023-02-23T08:55:59.788Z,8.3
2023-02-23T08:57:00.371Z,8.3
2023-02-23T08:57:59.957Z,8.4
2023-02-23T08:59:00.564Z,8.4
2023-02-23T09:00:00.206Z,8.4
2023-02-23T09:00:59.735Z,8.4
2023-02-23T09:02:00.312Z,8.3
2023-02-23T09:02:59.924Z,8.3
2023-02-23T09:04:00.506Z,8.4
2023-02-23T09:05:00.210Z,8.3
2023-02-23T09:06:00.691Z,8.3
2023-02-23T09:07:00.288Z,8.4
2023-02-23T09:07:59.878Z,8.4
2023-02-23T09:09:00.462Z,8.4
2023-02-23T09:10:00.117Z,8.4
2023-02-23T09:11:00.630Z,8.3
2023-02-23T09:12:00.300Z,8.3
2023-02-23T09:12:59.884Z,8.3
2023-02-23T09:14:00.459Z,8.2
2023-02-23T09:15:00.053Z,8.2
2023-02-23T09:16:00.691Z,8.3
2023-02-23T09:17:00.314Z,8.3
2023-02-23T09:17:59.851Z,8.3
2023-02-23T09:19:00.461Z,8.2
2023-02-23T09:20:00.053Z,8.2
2023-02-23T09:21:00.647Z,8.2
2023-02-23T09:22:00.261Z,8.2
2023-02-23T09:22:59.862Z,8.2
2023-02-23T09:24:00.424Z,8.1
2023-02-23T09:25:00.032Z,8.1
2023-02-23T09:26:00.596Z,8.1
2023-02-23T09:27:00.207Z,8.1
2023-02-23T09:27:59.758Z,8.2
2023-02-23T09:29:00.329Z,8.2
2023-02-23T09:29:59.919Z,8.2
2023-02-23T09:31:00.580Z,8.2
2023-02-23T09:32:00.390Z,8.2
2023-02-23T09:32:59.731Z,8.2
2023-02-23T09:34:00.326Z,8.2
2023-02-23T09:35:00.247Z,8.3
2023-02-23T09:36:00.537Z,8.3
2023-02-23T09:37:00.128Z,8.3
2023-02-23T09:37:59.710Z,8.3
2023-02-23T09:39:00.311Z,8.2
2023-02-23T09:39:59.914Z,8.3
2023-02-23T09:41:00.496Z,8.3
2023-02-23T09:42:00.094Z,8.3
2023-02-23T09:43:00.667Z,8.3
2023-02-23T09:44:00.277Z,8.3
2023-02-23T09:44:59.873Z,8.2
2023-02-23T09:46:00.610Z,8.3
2023-02-23T09:47:00.183Z,8.3
2023-02-23T09:48:00.666Z,8.3
2023-02-23T09:49:00.273Z,8.3
2023-02-23T09:49:59.863Z,8.3
2023-02-23T09:51:00.470Z,8.3
2023-02-23T09:52:00.096Z,8.3
2023-02-23T09:53:01.321Z,8.4
2023-02-23T09:54:00.204Z,8.4
2023-02-23T09:54:59.796Z,8.4
2023-02-23T09:56:00.365Z,8.4
2023-02-23T09:56:59.955Z,8.4
2023-02-23T09:58:00.562Z,8.5
2023-02-23T09:59:00.171Z,8.4
2023-02-23T09:59:59.738Z,8.5
2023-02-23T10:01:00.320Z,8.6
2023-02-23T10:01:59.938Z,8.6
2023-02-23T10:03:00.521Z,8.7
2023-02-23T10:04:00.136Z,8.8
2023-02-23T10:04:59.735Z,8.8
2023-02-23T10:06:00.286Z,8.8
2023-02-23T10:06:59.940Z,8.8
2023-02-23T10:08:00.463Z,8.8
2023-02-23T10:09:00.110Z,8.8
2023-02-23T10:10:00.692Z,8.8
2023-02-23T10:11:00.312Z,8.9
2023-02-23T10:11:59.878Z,8.9
2023-02-23T10:13:00.450Z,9
2023-02-23T10:14:00.130Z,8.9
2023-02-23T10:15:00.638Z,8.9
2023-02-23T10:16:00.254Z,8.9
2023-02-23T10:16:59.945Z,8.9
2023-02-23T10:18:02.344Z,8.9
2023-02-23T10:19:00.011Z,9
2023-02-23T10:20:00.616Z,9
2023-02-23T10:21:00.207Z,9
2023-02-23T10:21:59.805Z,9
2023-02-23T10:23:00.449Z,9
2023-02-23T10:24:00.036Z,8.9
2023-02-23T10:25:00.643Z,8.9
2023-02-23T10:26:00.257Z,8.8
2023-02-23T10:26:59.846Z,8.6
2023-02-23T10:28:00.625Z,8.5
2023-02-23T10:29:00.309Z,8.6
2023-02-23T10:29:59.724Z,8.5
2023-02-23T10:31:00.396Z,8.6
2023-02-23T10:32:00.032Z,8.7
2023-02-23T10:33:00.701Z,8.7
2023-02-23T10:34:00.158Z,8.6
2023-02-23T10:34:59.738Z,8.7
2023-02-23T10:36:12.357Z,8.7
2023-02-23T10:37:00.109Z,8.7
2023-02-23T10:38:00.539Z,8.7
2023-02-23T10:39:00.186Z,8.8
2023-02-23T10:39:59.739Z,8.8
2023-02-23T10:41:00.354Z,8.8
2023-02-23T10:41:59.948Z,8.8
2023-02-23T10:43:00.530Z,8.8
2023-02-23T10:44:07.858Z,8.8
2023-02-23T10:45:00.865Z,8.7
2023-02-23T10:46:00.485Z,8.7
2023-02-23T10:47:00.014Z,8.8
2023-02-23T10:48:00.532Z,8.7
2023-02-23T10:49:00.123Z,8.7
2023-02-23T10:49:59.705Z,8.7
2023-02-23T10:51:00.292Z,8.6
2023-02-23T10:51:59.905Z,8.5
2023-02-23T10:53:00.479Z,8.6
2023-02-23T10:54:07.779Z,8.6
2023-02-23T10:55:00.723Z,8.6
2023-02-23T10:56:00.345Z,8.5
2023-02-23T10:56:59.907Z,8.5
2023-02-23T10:58:00.469Z,8.5
2023-02-23T10:59:00.086Z,8.3
2023-02-23T11:00:00.650Z,8.3
2023-02-23T11:01:00.238Z,8.3
2023-02-23T11:02:02.552Z,8.3
2023-02-23T11:03:00.445Z,8.3
2023-02-23T11:04:05.871Z,8.3
2023-02-23T11:05:00.658Z,8.4
2023-02-23T11:06:00.276Z,8.4
2023-02-23T11:06:59.867Z,8.4
2023-02-23T11:08:00.454Z,8.4
2023-02-23T11:09:01.489Z,8.4
2023-02-23T11:10:00.123Z,8.5
2023-02-23T11:10:59.768Z,8.5
2023-02-23T11:12:00.359Z,8.5
2023-02-23T11:12:59.988Z,8.4
2023-02-23T11:14:00.574Z,8.4
2023-02-23T11:14:59.698Z,8.4
2023-02-23T11:16:00.300Z,8.3
2023-02-23T11:16:59.936Z,8.3
2023-02-23T11:18:00.523Z,8.3
2023-02-23T11:19:00.178Z,8.3
2023-02-23T11:19:59.705Z,8.3
2023-02-23T11:21:00.304Z,8.3
2023-02-23T11:21:59.907Z,8.3
2023-02-23T11:23:06.524Z,8.3
2023-02-23T11:24:00.042Z,8.3
2023-02-23T11:25:00.667Z,8.3
2023-02-23T11:26:00.353Z,8.2
2023-02-23T11:26:59.885Z,8.3
2023-02-23T11:28:00.434Z,8.2
2023-02-23T11:29:00.028Z,8.2
2023-02-23T11:30:00.653Z,8.3
2023-02-23T11:31:00.088Z,8.3
2023-02-23T11:31:59.822Z,8.3
2023-02-23T11:33:00.295Z,8.3
2023-02-23T11:33:59.904Z,8.4
2023-02-23T11:35:00.493Z,8.3
2023-02-23T11:36:00.117Z,8.4
2023-02-23T11:37:00.673Z,8.3
2023-02-23T11:38:00.266Z,8.4
2023-02-23T11:38:59.854Z,8.4
2023-02-23T11:40:00.477Z,8.4
2023-02-23T11:41:00.114Z,8.3
2023-02-23T11:42:00.663Z,8.3
2023-02-23T11:43:00.280Z,8.3
2023-02-23T11:43:59.902Z,8.3
2023-02-23T11:45:00.471Z,8.3
2023-02-23T11:46:00.141Z,8.3
2023-02-23T11:46:59.763Z,8.3
2023-02-23T11:48:00.208Z,8.3
2023-02-23T11:48:59.812Z,8.2
2023-02-23T11:50:00.384Z,8.2
2023-02-23T11:51:00.015Z,8.3
2023-02-23T11:52:00.560Z,8.3
2023-02-23T11:53:00.166Z,8.3
2023-02-23T11:53:59.730Z,8.3
2023-02-23T11:55:00.307Z,8.3
2023-02-23T11:55:59.918Z,8.4
2023-02-23T11:57:00.469Z,8.3
2023-02-23T11:58:00.088Z,8.3
2023-02-23T11:59:00.664Z,8.4
2023-02-23T12:00:00.257Z,8.3
2023-02-23T12:00:59.882Z,8.3
2023-02-23T12:02:00.460Z,8.3
2023-02-23T12:03:00.179Z,8.3
2023-02-23T12:04:00.653Z,8.2
2023-02-23T12:05:01.473Z,8.3
2023-02-23T12:06:00.176Z,8.2
2023-02-23T12:07:00.461Z,8.3
2023-02-23T12:08:00.160Z,8.2
2023-02-23T12:09:00.630Z,8.2
2023-02-23T12:10:00.226Z,8.3
2023-02-23T12:10:59.833Z,8.3
2023-02-23T12:12:00.415Z,8.3
2023-02-23T12:13:00.026Z,8.3
2023-02-23T12:14:00.584Z,8.3
2023-02-23T12:15:00.313Z,8.3
2023-02-23T12:15:59.761Z,8.2
2023-02-23T12:17:00.320Z,8.1
2023-02-23T12:17:59.914Z,8.1
2023-02-23T12:19:00.500Z,8.1
2023-02-23T12:20:00.174Z,8.1
2023-02-23T12:21:00.661Z,8.1
2023-02-23T12:22:00.252Z,8.1
2023-02-23T12:22:59.848Z,8.2
2023-02-23T12:24:00.433Z,8.1
2023-02-23T12:25:00.039Z,8.1
2023-02-23T12:26:00.595Z,8.1
2023-02-23T12:27:00.196Z,8.1
2023-02-23T12:28:05.137Z,8.1
2023-02-23T12:29:00.323Z,8.1
2023-02-23T12:29:59.912Z,8.2
2023-02-23T12:31:00.645Z,8.2
2023-02-23T12:32:00.256Z,8.2
2023-02-23T12:32:59.723Z,8.2
2023-02-23T12:34:00.304Z,8.2
2023-02-23T12:34:59.901Z,8.3
2023-02-23T12:36:00.492Z,8.3
2023-02-23T12:37:00.087Z,8.2
2023-02-23T12:38:00.651Z,8.3
2023-02-23T12:39:00.242Z,8.3
2023-02-23T12:39:59.827Z,8.3
2023-02-23T12:41:00.431Z,8.3
2023-02-23T12:42:00.021Z,8.3
2023-02-23T12:43:00.628Z,8.3
2023-02-23T12:44:00.225Z,8.4
2023-02-23T12:44:59.819Z,8.4
2023-02-23T12:46:00.412Z,8.3
2023-02-23T12:47:00.092Z,8.4
2023-02-23T12:48:00.704Z,8.4
2023-02-23T12:49:00.263Z,8.5
2023-02-23T12:49:59.815Z,8.5
2023-02-23T12:51:00.406Z,8.6
2023-02-23T12:51:59.996Z,8.6
2023-02-23T12:53:00.604Z,8.7
2023-02-23T12:54:00.200Z,8.7
2023-02-23T12:54:59.788Z,8.7
2023-02-23T12:56:00.365Z,8.7
2023-02-23T12:56:59.964Z,8.6
2023-02-23T12:58:00.570Z,8.7
2023-02-23T12:59:00.156Z,8.6
2023-02-23T12:59:59.780Z,8.5
2023-02-23T13:01:00.374Z,8.5
2023-02-23T13:02:00.013Z,8.6
2023-02-23T13:03:00.655Z,8.6
2023-02-23T13:04:00.224Z,8.6
2023-02-23T13:04:59.834Z,8.7
2023-02-23T13:06:00.398Z,8.7
2023-02-23T13:06:59.986Z,8.6
2023-02-23T13:08:11.529Z,8.6
2023-02-23T13:09:00.104Z,8.7
2023-02-23T13:09:59.717Z,8.7
2023-02-23T13:11:00.282Z,8.7
2023-02-23T13:11:59.872Z,8.7
2023-02-23T13:13:00.443Z,8.7
2023-02-23T13:14:00.043Z,8.7
2023-02-23T13:15:00.640Z,8.7
2023-02-23T13:16:00.237Z,8.7
2023-02-23T13:16:59.898Z,8.6
2023-02-23T13:18:00.411Z,8.8
2023-02-23T13:19:00.205Z,8.8
2023-02-23T13:20:00.587Z,8.8
2023-02-23T13:21:00.174Z,8.8
2023-02-23T13:21:59.761Z,8.8
2023-02-23T13:23:00.335Z,8.8
2023-02-23T13:23:59.951Z,8.8
2023-02-23T13:25:00.513Z,8.7
2023-02-23T13:26:00.107Z,8.6
2023-02-23T13:26:59.712Z,8.7
2023-02-23T13:28:00.284Z,8.6
2023-02-23T13:28:59.871Z,8.7
2023-02-23T13:30:00.448Z,8.7
2023-02-23T13:31:00.151Z,8.6
2023-02-23T13:32:00.772Z,8.6
2023-02-23T13:33:00.422Z,8.5
2023-02-23T13:33:59.860Z,8.5
2023-02-23T13:35:00.488Z,8.4
2023-02-23T13:36:00.123Z,8.4
2023-02-23T13:37:00.677Z,8.4
2023-02-23T13:38:00.269Z,8.4
2023-02-23T13:39:01.290Z,8.4
2023-02-23T13:40:00.415Z,8.4
2023-02-23T13:41:00.093Z,8.5
2023-02-23T13:42:00.572Z,8.4
2023-02-23T13:43:00.170Z,8.3
2023-02-23T13:43:59.753Z,8.3
2023-02-23T13:45:00.340Z,8.3
2023-02-23T13:46:00.095Z,8.2
2023-02-23T13:47:00.581Z,8.2
2023-02-23T13:48:00.181Z,8.2
2023-02-23T13:49:02.051Z,8.2
2023-02-23T13:50:00.430Z,8.3